sensor_id;sensor_type;location;lat;lon;timestamp;P1;durP1;ratioP1;P2;durP2;ratioP2
4078;SDS011;2054;47.858;11.156;2023-04-25T02:46:14;7.80;;;3.30;;
4078;SDS011;2054;47.858;11.156;2023-04-25T02:48:41;2.67;;;1.88;;
4078;SDS011;2054;47.858;11.156;2023-04-25T02:51:08;2.70;;;2.22;;
4078;SDS011;2054;47.858;11.156;2023-04-25T02:53:36;4.45;;;2.67;;
4078;SDS011;2054;47.858;11.156;2023-04-25T02:56:03;4.00;;;2.00;;
4078;SDS011;2054;47.858;11.156;2023-04-25T02:58:30;4.15;;;2.22;;
4078;SDS011;2054;47.858;11.156;2023-04-25T03:00:58;3.10;;;1.88;;
4078;SDS011;2054;47.858;11.156;2023-04-25T03:03:27;5.53;;;2.47;;
4078;SDS011;2054;47.858;11.156;2023-04-25T03:05:54;3.58;;;2.20;;
4078;SDS011;2054;47.858;11.156;2023-04-25T03:08:21;2.05;;;1.65;;
4078;SDS011;2054;47.858;11.156;2023-04-25T03:10:50;4.50;;;2.15;;
4078;SDS011;2054;47.858;11.156;2023-04-25T03:13:20;3.92;;;1.90;;
4078;SDS011;2054;47.858;11.156;2023-04-25T03:15:47;2.38;;;2.10;;
4078;SDS011;2054;47.858;11.156;2023-04-25T03:18:15;3.10;;;1.77;;
4078;SDS011;2054;47.858;11.156;2023-04-25T03:20:43;2.90;;;1.42;;
4078;SDS011;2054;47.858;11.156;2023-04-25T03:23:11;2.72;;;1.63;;
4078;SDS011;2054;47.858;11.156;2023-04-25T03:25:39;2.35;;;1.42;;
4078;SDS011;2054;47.858;11.156;2023-04-25T03:28:06;2.88;;;1.60;;
4078;SDS011;2054;47.858;11.156;2023-04-25T03:30:34;2.67;;;1.48;;
4078;SDS011;2054;47.858;11.156;2023-04-25T03:33:01;2.35;;;1.50;;
4078;SDS011;2054;47.858;11.156;2023-04-25T03:35:29;2.92;;;1.60;;
4078;SDS011;2054;47.858;11.156;2023-04-25T03:37:57;4.43;;;2.00;;
4078;SDS011;2054;47.858;11.156;2023-04-25T03:40:25;4.28;;;2.15;;
4078;SDS011;2054;47.858;11.156;2023-04-25T03:42:52;4.88;;;1.83;;
4078;SDS011;2054;47.858;11.156;2023-04-25T03:45:19;3.67;;;2.00;;
4078;SDS011;2054;47.858;11.156;2023-04-25T03:47:48;4.20;;;1.95;;
4078;SDS011;2054;47.858;11.156;2023-04-25T03:50:15;2.97;;;1.85;;
4078;SDS011;2054;47.858;11.156;2023-04-25T03:52:43;5.88;;;1.85;;
4078;SDS011;2054;47.858;11.156;2023-04-25T03:55:11;4.25;;;2.15;;
4078;SDS011;2054;47.858;11.156;2023-04-25T03:57:39;2.95;;;2.10;;
4078;SDS011;2054;47.858;11.156;2023-04-25T04:00:06;3.15;;;1.98;;
4078;SDS011;2054;47.858;11.156;2023-04-25T04:02:34;4.90;;;2.10;;
4078;SDS011;2054;47.858;11.156;2023-04-25T04:05:02;2.22;;;2.03;;
4078;SDS011;2054;47.858;11.156;2023-04-25T04:07:30;2.78;;;2.20;;
4078;SDS011;2054;47.858;11.156;2023-04-25T04:09:58;3.72;;;2.30;;
4078;SDS011;2054;47.858;11.156;2023-04-25T04:12:27;3.55;;;1.80;;
4078;SDS011;2054;47.858;11.156;2023-04-25T04:14:54;3.20;;;2.20;;
4078;SDS011;2054;47.858;11.156;2023-04-25T04:17:23;3.20;;;1.67;;
4078;SDS011;2054;47.858;11.156;2023-04-25T04:19:50;5.55;;;2.30;;
4078;SDS011;2054;47.858;11.156;2023-04-25T04:22:17;3.83;;;2.45;;
4078;SDS011;2054;47.858;11.156;2023-04-25T04:24:45;4.22;;;2.08;;
4078;SDS011;2054;47.858;11.156;2023-04-25T04:27:12;6.05;;;2.28;;
4078;SDS011;2054;47.858;11.156;2023-04-25T04:29:41;4.45;;;2.92;;
4078;SDS011;2054;47.858;11.156;2023-04-25T04:32:09;4.93;;;2.55;;
4078;SDS011;2054;47.858;11.156;2023-04-25T04:34:36;4.15;;;2.92;;
4078;SDS011;2054;47.858;11.156;2023-04-25T04:37:04;4.95;;;2.65;;
4078;SDS011;2054;47.858;11.156;2023-04-25T04:39:32;5.78;;;2.72;;
4078;SDS011;2054;47.858;11.156;2023-04-25T04:41:59;5.78;;;3.25;;
4078;SDS011;2054;47.858;11.156;2023-04-25T04:44:28;4.93;;;2.67;;
4078;SDS011;2054;47.858;11.156;2023-04-25T04:46:59;6.32;;;2.78;;
4078;SDS011;2054;47.858;11.156;2023-04-25T04:49:26;4.57;;;2.80;;
4078;SDS011;2054;47.858;11.156;2023-04-25T04:51:54;8.40;;;3.80;;
4078;SDS011;2054;47.858;11.156;2023-04-25T04:54:21;9.35;;;3.40;;
4078;SDS011;2054;47.858;11.156;2023-04-25T04:56:48;4.55;;;2.47;;
4078;SDS011;2054;47.858;11.156;2023-04-25T04:59:17;4.78;;;3.40;;
4078;SDS011;2054;47.858;11.156;2023-04-25T05:01:44;5.70;;;3.20;;
4078;SDS011;2054;47.858;11.156;2023-04-25T05:04:13;5.85;;;3.25;;
4078;SDS011;2054;47.858;11.156;2023-04-25T05:06:40;11.68;;;6.03;;
4078;SDS011;2054;47.858;11.156;2023-04-25T05:09:10;10.20;;;5.13;;
4078;SDS011;2054;47.858;11.156;2023-04-25T05:11:37;10.45;;;5.22;;
4078;SDS011;2054;47.858;11.156;2023-04-25T05:14:04;9.93;;;5.10;;
4078;SDS011;2054;47.858;11.156;2023-04-25T05:16:32;8.63;;;4.22;;
4078;SDS011;2054;47.858;11.156;2023-04-25T05:19:00;4.32;;;3.42;;
4078;SDS011;2054;47.858;11.156;2023-04-25T05:21:28;4.63;;;3.20;;
4078;SDS011;2054;47.858;11.156;2023-04-25T05:23:56;6.13;;;3.28;;
4078;SDS011;2054;47.858;11.156;2023-04-25T05:26:23;7.97;;;3.50;;
4078;SDS011;2054;47.858;11.156;2023-04-25T05:28:50;5.90;;;3.42;;
4078;SDS011;2054;47.858;11.156;2023-04-25T05:31:18;5.05;;;2.97;;
4078;SDS011;2054;47.858;11.156;2023-04-25T05:33:45;4.53;;;2.92;;
4078;SDS011;2054;47.858;11.156;2023-04-25T05:36:13;7.47;;;2.97;;
4078;SDS011;2054;47.858;11.156;2023-04-25T05:38:41;4.03;;;2.78;;
4078;SDS011;2054;47.858;11.156;2023-04-25T05:41:09;4.03;;;2.95;;
4078;SDS011;2054;47.858;11.156;2023-04-25T05:43:36;4.47;;;3.38;;
4078;SDS011;2054;47.858;11.156;2023-04-25T05:46:04;7.15;;;4.95;;
4078;SDS011;2054;47.858;11.156;2023-04-25T05:48:31;9.10;;;5.00;;
4078;SDS011;2054;47.858;11.156;2023-04-25T05:50:58;8.27;;;4.65;;
4078;SDS011;2054;47.858;11.156;2023-04-25T05:53:25;4.85;;;3.35;;
4078;SDS011;2054;47.858;11.156;2023-04-25T05:55:54;5.55;;;3.40;;
4078;SDS011;2054;47.858;11.156;2023-04-25T05:58:21;5.93;;;4.05;;
4078;SDS011;2054;47.858;11.156;2023-04-25T06:00:49;7.95;;;3.72;;
4078;SDS011;2054;47.858;11.156;2023-04-25T06:03:16;3.33;;;3.03;;
4078;SDS011;2054;47.858;11.156;2023-04-25T06:05:43;7.85;;;3.20;;
4078;SDS011;2054;47.858;11.156;2023-04-25T06:08:11;5.47;;;3.55;;
4078;SDS011;2054;47.858;11.156;2023-04-25T06:10:38;6.85;;;3.08;;
4078;SDS011;2054;47.858;11.156;2023-04-25T06:13:07;4.82;;;3.30;;
4078;SDS011;2054;47.858;11.156;2023-04-25T06:15:34;4.47;;;3.00;;
4078;SDS011;2054;47.858;11.156;2023-04-25T06:18:01;6.13;;;3.28;;
4078;SDS011;2054;47.858;11.156;2023-04-25T06:20:29;3.97;;;3.00;;
4078;SDS011;2054;47.858;11.156;2023-04-25T06:22:56;5.50;;;3.38;;
4078;SDS011;2054;47.858;11.156;2023-04-25T06:25:23;7.32;;;3.53;;
4078;SDS011;2054;47.858;11.156;2023-04-25T06:27:50;6.20;;;3.33;;
4078;SDS011;2054;47.858;11.156;2023-04-25T06:30:19;3.92;;;3.05;;
4078;SDS011;2054;47.858;11.156;2023-04-25T06:32:50;4.38;;;2.95;;
4078;SDS011;2054;47.858;11.156;2023-04-25T06:35:18;6.43;;;2.83;;
4078;SDS011;2054;47.858;11.156;2023-04-25T06:37:45;7.45;;;3.13;;
4078;SDS011;2054;47.858;11.156;2023-04-25T06:40:12;5.43;;;3.03;;
4078;SDS011;2054;47.858;11.156;2023-04-25T06:42:40;5.03;;;3.03;;
4078;SDS011;2054;47.858;11.156;2023-04-25T06:45:07;6.45;;;3.03;;
4078;SDS011;2054;47.858;11.156;2023-04-25T06:47:36;5.45;;;2.70;;
4078;SDS011;2054;47.858;11.156;2023-04-25T06:50:04;4.55;;;3.13;;
4078;SDS011;2054;47.858;11.156;2023-04-25T06:52:31;5.63;;;3.40;;
4078;SDS011;2054;47.858;11.156;2023-04-25T06:54:59;5.82;;;2.78;;
4078;SDS011;2054;47.858;11.156;2023-04-25T06:57:26;3.70;;;2.78;;
4078;SDS011;2054;47.858;11.156;2023-04-25T06:59:53;4.32;;;2.70;;
4078;SDS011;2054;47.858;11.156;2023-04-25T07:02:20;6.78;;;2.45;;
4078;SDS011;2054;47.858;11.156;2023-04-25T07:04:49;4.85;;;2.70;;
4078;SDS011;2054;47.858;11.156;2023-04-25T07:07:16;6.30;;;2.83;;
4078;SDS011;2054;47.858;11.156;2023-04-25T07:09:44;5.55;;;2.60;;
4078;SDS011;2054;47.858;11.156;2023-04-25T07:12:11;2.97;;;2.40;;
4078;SDS011;2054;47.858;11.156;2023-04-25T07:14:38;4.45;;;2.70;;
4078;SDS011;2054;47.858;11.156;2023-04-25T07:17:05;5.40;;;2.60;;
4078;SDS011;2054;47.858;11.156;2023-04-25T07:19:33;5.70;;;2.50;;
4078;SDS011;2054;47.858;11.156;2023-04-25T07:22:03;2.90;;;2.40;;
4078;SDS011;2054;47.858;11.156;2023-04-25T07:24:30;3.72;;;2.30;;
4078;SDS011;2054;47.858;11.156;2023-04-25T07:26:57;3.28;;;1.80;;
4078;SDS011;2054;47.858;11.156;2023-04-25T07:29:24;3.72;;;2.05;;
4078;SDS011;2054;47.858;11.156;2023-04-25T07:31:52;3.47;;;1.90;;
4078;SDS011;2054;47.858;11.156;2023-04-25T07:34:19;3.97;;;1.92;;
4078;SDS011;2054;47.858;11.156;2023-04-25T07:36:46;5.20;;;2.25;;
4078;SDS011;2054;47.858;11.156;2023-04-25T07:39:15;4.25;;;2.90;;
4078;SDS011;2054;47.858;11.156;2023-04-25T07:41:42;4.85;;;2.20;;
4078;SDS011;2054;47.858;11.156;2023-04-25T07:44:09;5.07;;;2.15;;
4078;SDS011;2054;47.858;11.156;2023-04-25T07:46:36;4.60;;;2.45;;
4078;SDS011;2054;47.858;11.156;2023-04-25T07:49:04;4.05;;;2.10;;
4078;SDS011;2054;47.858;11.156;2023-04-25T07:51:31;7.15;;;2.13;;
4078;SDS011;2054;47.858;11.156;2023-04-25T07:53:58;5.00;;;2.58;;
4078;SDS011;2054;47.858;11.156;2023-04-25T07:56:27;2.65;;;1.52;;
4078;SDS011;2054;47.858;11.156;2023-04-25T07:58:55;4.05;;;2.15;;
4078;SDS011;2054;47.858;11.156;2023-04-25T08:01:22;1.88;;;1.60;;
4078;SDS011;2054;47.858;11.156;2023-04-25T08:03:49;2.40;;;1.70;;
4078;SDS011;2054;47.858;11.156;2023-04-25T08:06:16;2.88;;;1.50;;
4078;SDS011;2054;47.858;11.156;2023-04-25T08:08:44;3.20;;;1.60;;
4078;SDS011;2054;47.858;11.156;2023-04-25T08:11:12;1.60;;;1.50;;
4078;SDS011;2054;47.858;11.156;2023-04-25T08:13:42;2.67;;;1.52;;
4078;SDS011;2054;47.858;11.156;2023-04-25T08:16:09;2.55;;;1.42;;
4078;SDS011;2054;47.858;11.156;2023-04-25T08:18:36;3.25;;;1.70;;
4078;SDS011;2054;47.858;11.156;2023-04-25T08:21:03;2.05;;;1.20;;
4078;SDS011;2054;47.858;11.156;2023-04-25T08:23:31;2.03;;;1.63;;
4078;SDS011;2054;47.858;11.156;2023-04-25T08:25:58;3.67;;;1.83;;
4078;SDS011;2054;47.858;11.156;2023-04-25T08:28:26;2.78;;;1.42;;
4078;SDS011;2054;47.858;11.156;2023-04-25T08:30:55;2.90;;;1.83;;
4078;SDS011;2054;47.858;11.156;2023-04-25T08:33:22;2.78;;;1.75;;
4078;SDS011;2054;47.858;11.156;2023-04-25T08:35:50;2.53;;;1.60;;
4078;SDS011;2054;47.858;11.156;2023-04-25T08:38:17;3.03;;;1.65;;
4078;SDS011;2054;47.858;11.156;2023-04-25T08:40:45;4.53;;;1.95;;
4078;SDS011;2054;47.858;11.156;2023-04-25T08:43:18;2.15;;;1.60;;
4078;SDS011;2054;47.858;11.156;2023-04-25T08:45:46;5.40;;;1.80;;
4078;SDS011;2054;47.858;11.156;2023-04-25T08:48:15;2.20;;;2.00;;
4078;SDS011;2054;47.858;11.156;2023-04-25T08:50:45;3.05;;;1.48;;
4078;SDS011;2054;47.858;11.156;2023-04-25T08:53:12;4.88;;;1.58;;
4078;SDS011;2054;47.858;11.156;2023-04-25T08:55:43;2.80;;;1.52;;
4078;SDS011;2054;47.858;11.156;2023-04-25T08:58:13;1.60;;;1.50;;
4078;SDS011;2054;47.858;11.156;2023-04-25T09:00:40;2.40;;;1.63;;
4078;SDS011;2054;47.858;11.156;2023-04-25T09:03:07;2.42;;;1.67;;
4078;SDS011;2054;47.858;11.156;2023-04-25T09:05:36;4.68;;;1.50;;
4078;SDS011;2054;47.858;11.156;2023-04-25T09:08:04;2.60;;;1.40;;
4078;SDS011;2054;47.858;11.156;2023-04-25T09:10:32;3.85;;;1.50;;
4078;SDS011;2054;47.858;11.156;2023-04-25T09:13:03;2.97;;;1.60;;
4078;SDS011;2054;47.858;11.156;2023-04-25T09:15:31;3.95;;;1.60;;
4078;SDS011;2054;47.858;11.156;2023-04-25T09:17:59;2.85;;;1.65;;
4078;SDS011;2054;47.858;11.156;2023-04-25T09:20:26;3.78;;;1.42;;
4078;SDS011;2054;47.858;11.156;2023-04-25T09:23:02;2.50;;;1.70;;
4078;SDS011;2054;47.858;11.156;2023-04-25T09:25:33;1.98;;;1.63;;
4078;SDS011;2054;47.858;11.156;2023-04-25T09:28:04;2.03;;;1.70;;
4078;SDS011;2054;47.858;11.156;2023-04-25T09:30:32;3.10;;;1.98;;
4078;SDS011;2054;47.858;11.156;2023-04-25T09:33:03;2.10;;;1.52;;
4078;SDS011;2054;47.858;11.156;2023-04-25T09:35:35;2.53;;;1.67;;
4078;SDS011;2054;47.858;11.156;2023-04-25T09:38:08;3.88;;;1.50;;
4078;SDS011;2054;47.858;11.156;2023-04-25T09:40:38;2.42;;;1.65;;
4078;SDS011;2054;47.858;11.156;2023-04-25T09:43:08;3.53;;;1.50;;
4078;SDS011;2054;47.858;11.156;2023-04-25T09:45:40;3.83;;;1.70;;
4078;SDS011;2054;47.858;11.156;2023-04-25T09:48:10;2.33;;;1.50;;
4078;SDS011;2054;47.858;11.156;2023-04-25T09:50:38;2.00;;;1.35;;
4078;SDS011;2054;47.858;11.156;2023-04-25T09:53:09;2.97;;;1.70;;
4078;SDS011;2054;47.858;11.156;2023-04-25T09:55:36;2.22;;;1.40;;
4078;SDS011;2054;47.858;11.156;2023-04-25T09:58:05;4.60;;;2.00;;
4078;SDS011;2054;47.858;11.156;2023-04-25T10:00:33;1.83;;;1.60;;
4078;SDS011;2054;47.858;11.156;2023-04-25T10:03:00;2.15;;;1.88;;
4078;SDS011;2054;47.858;11.156;2023-04-25T10:05:30;4.43;;;1.70;;
4078;SDS011;2054;47.858;11.156;2023-04-25T10:07:59;2.60;;;1.70;;
4078;SDS011;2054;47.858;11.156;2023-04-25T10:10:30;2.65;;;1.70;;
4078;SDS011;2054;47.858;11.156;2023-04-25T10:13:02;2.83;;;1.70;;
4078;SDS011;2054;47.858;11.156;2023-04-25T10:15:30;1.80;;;1.58;;
4078;SDS011;2054;47.858;11.156;2023-04-25T10:17:57;3.38;;;2.20;;
4078;SDS011;2054;47.858;11.156;2023-04-25T10:20:25;2.53;;;1.50;;
4078;SDS011;2054;47.858;11.156;2023-04-25T10:22:53;2.45;;;1.67;;
4078;SDS011;2054;47.858;11.156;2023-04-25T10:25:21;1.40;;;1.25;;
4078;SDS011;2054;47.858;11.156;2023-04-25T10:27:51;1.98;;;1.63;;
4078;SDS011;2054;47.858;11.156;2023-04-25T10:30:18;1.83;;;1.25;;
4078;SDS011;2054;47.858;11.156;2023-04-25T10:32:46;3.38;;;1.90;;
4078;SDS011;2054;47.858;11.156;2023-04-25T10:35:16;2.20;;;1.23;;
4078;SDS011;2054;47.858;11.156;2023-04-25T10:37:59;1.88;;;1.67;;
4078;SDS011;2054;47.858;11.156;2023-04-25T10:40:27;5.03;;;1.80;;
4078;SDS011;2054;47.858;11.156;2023-04-25T10:42:56;3.78;;;1.98;;
4078;SDS011;2054;47.858;11.156;2023-04-25T10:45:52;4.05;;;1.83;;
4078;SDS011;2054;47.858;11.156;2023-04-25T10:48:24;2.55;;;1.70;;
4078;SDS011;2054;47.858;11.156;2023-04-25T10:51:01;2.40;;;1.70;;
4078;SDS011;2054;47.858;11.156;2023-04-25T10:53:33;4.30;;;1.90;;
4078;SDS011;2054;47.858;11.156;2023-04-25T10:56:05;5.30;;;1.63;;
4078;SDS011;2054;47.858;11.156;2023-04-25T10:58:37;2.22;;;1.85;;
4078;SDS011;2054;47.858;11.156;2023-04-25T11:01:08;2.03;;;1.60;;
4078;SDS011;2054;47.858;11.156;2023-04-25T11:03:38;4.18;;;1.95;;
4078;SDS011;2054;47.858;11.156;2023-04-25T11:06:06;5.10;;;1.90;;
4078;SDS011;2054;47.858;11.156;2023-04-25T11:08:46;2.15;;;1.77;;
4078;SDS011;2054;47.858;11.156;2023-04-25T11:11:14;3.20;;;1.73;;
4078;SDS011;2054;47.858;11.156;2023-04-25T11:13:43;6.40;;;1.77;;
4078;SDS011;2054;47.858;11.156;2023-04-25T11:16:11;4.32;;;1.80;;
4078;SDS011;2054;47.858;11.156;2023-04-25T11:18:40;1.70;;;1.40;;
4078;SDS011;2054;47.858;11.156;2023-04-25T11:21:08;2.05;;;1.38;;
4078;SDS011;2054;47.858;11.156;2023-04-25T11:23:37;1.92;;;1.63;;
4078;SDS011;2054;47.858;11.156;2023-04-25T11:26:04;2.38;;;1.67;;
4078;SDS011;2054;47.858;11.156;2023-04-25T11:28:32;2.20;;;1.52;;
4078;SDS011;2054;47.858;11.156;2023-04-25T11:31:02;4.18;;;1.30;;
4078;SDS011;2054;47.858;11.156;2023-04-25T11:33:29;2.95;;;1.23;;
4078;SDS011;2054;47.858;11.156;2023-04-25T11:35:57;1.80;;;1.40;;
4078;SDS011;2054;47.858;11.156;2023-04-25T11:38:25;1.30;;;1.20;;
4078;SDS011;2054;47.858;11.156;2023-04-25T11:40:52;2.63;;;1.20;;
4078;SDS011;2054;47.858;11.156;2023-04-25T11:43:21;2.00;;;1.40;;
4078;SDS011;2054;47.858;11.156;2023-04-25T11:45:49;3.22;;;1.55;;
4078;SDS011;2054;47.858;11.156;2023-04-25T11:48:18;1.95;;;1.73;;
4078;SDS011;2054;47.858;11.156;2023-04-25T11:50:46;2.25;;;1.55;;
4078;SDS011;2054;47.858;11.156;2023-04-25T11:53:13;4.72;;;1.33;;
4078;SDS011;2054;47.858;11.156;2023-04-25T11:55:41;1.38;;;1.27;;
4078;SDS011;2054;47.858;11.156;2023-04-25T11:58:08;2.45;;;1.33;;
4078;SDS011;2054;47.858;11.156;2023-04-25T12:00:38;1.73;;;1.63;;
4078;SDS011;2054;47.858;11.156;2023-04-25T12:03:08;2.55;;;1.60;;
4078;SDS011;2054;47.858;11.156;2023-04-25T12:05:37;1.73;;;1.30;;
4078;SDS011;2054;47.858;11.156;2023-04-25T12:08:11;2.95;;;1.73;;
4078;SDS011;2054;47.858;11.156;2023-04-25T12:10:40;1.13;;;1.10;;
4078;SDS011;2054;47.858;11.156;2023-04-25T12:13:17;1.35;;;1.25;;
4078;SDS011;2054;47.858;11.156;2023-04-25T12:15:44;1.63;;;1.05;;
4078;SDS011;2054;47.858;11.156;2023-04-25T12:18:12;2.67;;;1.05;;
4078;SDS011;2054;47.858;11.156;2023-04-25T12:20:41;0.85;;;0.60;;
4078;SDS011;2054;47.858;11.156;2023-04-25T12:23:08;1.10;;;1.00;;
4078;SDS011;2054;47.858;11.156;2023-04-25T12:25:38;1.30;;;0.75;;
4078;SDS011;2054;47.858;11.156;2023-04-25T12:28:09;2.58;;;1.42;;
4078;SDS011;2054;47.858;11.156;2023-04-25T12:30:51;0.70;;;0.70;;
4078;SDS011;2054;47.858;11.156;2023-04-25T12:33:19;1.13;;;0.55;;
4078;SDS011;2054;47.858;11.156;2023-04-25T12:35:48;0.70;;;0.50;;
4078;SDS011;2054;47.858;11.156;2023-04-25T12:38:20;0.60;;;0.60;;
4078;SDS011;2054;47.858;11.156;2023-04-25T12:40:47;0.50;;;0.50;;
4078;SDS011;2054;47.858;11.156;2023-04-25T12:43:15;0.52;;;0.52;;
4078;SDS011;2054;47.858;11.156;2023-04-25T12:45:43;0.50;;;0.50;;
4078;SDS011;2054;47.858;11.156;2023-04-25T12:48:10;0.43;;;0.43;;
4078;SDS011;2054;47.858;11.156;2023-04-25T12:50:38;0.50;;;0.50;;
4078;SDS011;2054;47.858;11.156;2023-04-25T12:53:09;0.50;;;0.50;;
4078;SDS011;2054;47.858;11.156;2023-04-25T12:55:36;0.50;;;0.50;;
4078;SDS011;2054;47.858;11.156;2023-04-25T12:58:04;0.38;;;0.38;;
4078;SDS011;2054;47.858;11.156;2023-04-25T13:00:31;0.50;;;0.50;;
4078;SDS011;2054;47.858;11.156;2023-04-25T13:02:59;1.10;;;0.50;;
4078;SDS011;2054;47.858;11.156;2023-04-25T13:05:27;0.38;;;0.38;;
4078;SDS011;2054;47.858;11.156;2023-04-25T13:07:55;1.70;;;0.40;;
4078;SDS011;2054;47.858;11.156;2023-04-25T13:10:24;0.40;;;0.40;;
4078;SDS011;2054;47.858;11.156;2023-04-25T13:12:51;1.02;;;0.40;;
4078;SDS011;2054;47.858;11.156;2023-04-25T13:15:19;0.50;;;0.50;;
4078;SDS011;2054;47.858;11.156;2023-04-25T13:17:46;0.43;;;0.40;;
4078;SDS011;2054;47.858;11.156;2023-04-25T13:20:14;0.40;;;0.40;;
4078;SDS011;2054;47.858;11.156;2023-04-25T13:22:43;0.45;;;0.45;;
4078;SDS011;2054;47.858;11.156;2023-04-25T13:25:11;0.60;;;0.60;;
4078;SDS011;2054;47.858;11.156;2023-04-25T13:27:40;0.40;;;0.40;;
4078;SDS011;2054;47.858;11.156;2023-04-25T13:30:09;0.60;;;0.60;;
4078;SDS011;2054;47.858;11.156;2023-04-25T13:32:37;0.80;;;0.40;;
4078;SDS011;2054;47.858;11.156;2023-04-25T13:35:04;0.52;;;0.52;;
4078;SDS011;2054;47.858;11.156;2023-04-25T13:37:32;0.45;;;0.45;;
4078;SDS011;2054;47.858;11.156;2023-04-25T13:40:00;0.40;;;0.40;;
4078;SDS011;2054;47.858;11.156;2023-04-25T13:42:29;0.35;;;0.35;;
4078;SDS011;2054;47.858;11.156;2023-04-25T13:44:58;0.40;;;0.40;;
4078;SDS011;2054;47.858;11.156;2023-04-25T13:47:27;0.85;;;0.60;;
4078;SDS011;2054;47.858;11.156;2023-04-25T13:49:55;0.55;;;0.55;;
4078;SDS011;2054;47.858;11.156;2023-04-25T13:52:22;0.73;;;0.60;;
4078;SDS011;2054;47.858;11.156;2023-04-25T13:54:50;0.50;;;0.50;;
4078;SDS011;2054;47.858;11.156;2023-04-25T13:57:18;0.68;;;0.68;;
4078;SDS011;2054;47.858;11.156;2023-04-25T13:59:45;0.63;;;0.63;;
4078;SDS011;2054;47.858;11.156;2023-04-25T14:02:14;0.98;;;0.85;;
4078;SDS011;2054;47.858;11.156;2023-04-25T14:04:41;0.50;;;0.50;;
4078;SDS011;2054;47.858;11.156;2023-04-25T14:07:09;0.50;;;0.50;;
4078;SDS011;2054;47.858;11.156;2023-04-25T14:09:37;1.73;;;1.00;;
4078;SDS011;2054;47.858;11.156;2023-04-25T14:12:04;0.70;;;0.70;;
4078;SDS011;2054;47.858;11.156;2023-04-25T14:14:34;4.82;;;2.85;;
4078;SDS011;2054;47.858;11.156;2023-04-25T14:17:01;0.63;;;0.63;;
4078;SDS011;2054;47.858;11.156;2023-04-25T14:19:30;0.80;;;0.80;;
4078;SDS011;2054;47.858;11.156;2023-04-25T14:21:57;5.50;;;2.38;;
4078;SDS011;2054;47.858;11.156;2023-04-25T14:24:25;0.50;;;0.50;;
4078;SDS011;2054;47.858;11.156;2023-04-25T14:26:52;0.73;;;0.73;;
4078;SDS011;2054;47.858;11.156;2023-04-25T14:29:20;1.10;;;1.00;;
4078;SDS011;2054;47.858;11.156;2023-04-25T14:31:49;2.15;;;1.83;;
4078;SDS011;2054;47.858;11.156;2023-04-25T14:34:17;0.95;;;0.90;;
4078;SDS011;2054;47.858;11.156;2023-04-25T14:36:46;0.70;;;0.70;;
4078;SDS011;2054;47.858;11.156;2023-04-25T14:39:13;6.53;;;2.97;;
4078;SDS011;2054;47.858;11.156;2023-04-25T14:41:41;0.88;;;0.88;;
4078;SDS011;2054;47.858;11.156;2023-04-25T14:44:09;0.60;;;0.60;;
4078;SDS011;2054;47.858;11.156;2023-04-25T14:46:36;0.73;;;0.70;;
4078;SDS011;2054;47.858;11.156;2023-04-25T14:49:04;0.90;;;0.90;;
4078;SDS011;2054;47.858;11.156;2023-04-25T14:51:32;0.60;;;0.60;;
4078;SDS011;2054;47.858;11.156;2023-04-25T14:54:01;1.98;;;1.50;;
4078;SDS011;2054;47.858;11.156;2023-04-25T14:56:29;0.82;;;0.82;;
4078;SDS011;2054;47.858;11.156;2023-04-25T14:58:56;1.33;;;1.23;;
4078;SDS011;2054;47.858;11.156;2023-04-25T15:01:23;4.72;;;2.58;;
4078;SDS011;2054;47.858;11.156;2023-04-25T15:03:51;0.80;;;0.80;;
4078;SDS011;2054;47.858;11.156;2023-04-25T15:06:18;0.70;;;0.70;;
4078;SDS011;2054;47.858;11.156;2023-04-25T15:08:46;0.60;;;0.60;;
4078;SDS011;2054;47.858;11.156;2023-04-25T15:11:15;0.57;;;0.50;;
4078;SDS011;2054;47.858;11.156;2023-04-25T15:13:42;0.60;;;0.60;;
4078;SDS011;2054;47.858;11.156;2023-04-25T15:16:10;0.68;;;0.65;;
4078;SDS011;2054;47.858;11.156;2023-04-25T15:18:37;1.15;;;0.80;;
4078;SDS011;2054;47.858;11.156;2023-04-25T15:21:05;0.73;;;0.63;;
4078;SDS011;2054;47.858;11.156;2023-04-25T15:23:33;3.47;;;1.20;;
4078;SDS011;2054;47.858;11.156;2023-04-25T15:26:00;4.85;;;1.98;;
4078;SDS011;2054;47.858;11.156;2023-04-25T15:28:29;0.63;;;0.55;;
4078;SDS011;2054;47.858;11.156;2023-04-25T15:30:58;1.15;;;0.82;;
4078;SDS011;2054;47.858;11.156;2023-04-25T15:33:26;0.60;;;0.60;;
4078;SDS011;2054;47.858;11.156;2023-04-25T15:35:53;1.10;;;0.80;;
4078;SDS011;2054;47.858;11.156;2023-04-25T15:38:22;1.90;;;0.82;;
4078;SDS011;2054;47.858;11.156;2023-04-25T15:40:51;0.88;;;0.80;;
4078;SDS011;2054;47.858;11.156;2023-04-25T15:43:19;2.25;;;1.45;;
4078;SDS011;2054;47.858;11.156;2023-04-25T15:45:47;1.17;;;1.08;;
4078;SDS011;2054;47.858;11.156;2023-04-25T15:48:15;5.38;;;3.17;;
4078;SDS011;2054;47.858;11.156;2023-04-25T15:50:43;1.10;;;0.80;;
4078;SDS011;2054;47.858;11.156;2023-04-25T15:53:10;5.90;;;3.15;;
4078;SDS011;2054;47.858;11.156;2023-04-25T15:55:38;1.23;;;1.13;;
4078;SDS011;2054;47.858;11.156;2023-04-25T15:58:05;0.73;;;0.73;;
4078;SDS011;2054;47.858;11.156;2023-04-25T16:00:32;4.00;;;1.10;;
4078;SDS011;2054;47.858;11.156;2023-04-25T16:03:03;0.77;;;0.77;;
4078;SDS011;2054;47.858;11.156;2023-04-25T16:05:31;0.40;;;0.40;;
4078;SDS011;2054;47.858;11.156;2023-04-25T16:07:59;0.60;;;0.60;;
4078;SDS011;2054;47.858;11.156;2023-04-25T16:10:28;0.82;;;0.70;;
4078;SDS011;2054;47.858;11.156;2023-04-25T16:12:56;2.55;;;0.90;;
4078;SDS011;2054;47.858;11.156;2023-04-25T16:15:23;1.58;;;1.27;;
4078;SDS011;2054;47.858;11.156;2023-04-25T16:17:50;1.00;;;0.90;;
4078;SDS011;2054;47.858;11.156;2023-04-25T16:20:19;2.42;;;2.05;;
4078;SDS011;2054;47.858;11.156;2023-04-25T16:22:47;1.45;;;1.15;;
4078;SDS011;2054;47.858;11.156;2023-04-25T16:25:14;1.00;;;0.90;;
4078;SDS011;2054;47.858;11.156;2023-04-25T16:27:42;1.48;;;1.30;;
4078;SDS011;2054;47.858;11.156;2023-04-25T16:30:09;1.08;;;1.02;;
4078;SDS011;2054;47.858;11.156;2023-04-25T16:32:38;0.90;;;0.90;;
4078;SDS011;2054;47.858;11.156;2023-04-25T16:35:06;1.25;;;1.15;;
4078;SDS011;2054;47.858;11.156;2023-04-25T16:37:35;1.73;;;1.20;;
4078;SDS011;2054;47.858;11.156;2023-04-25T16:40:03;1.15;;;1.05;;
4078;SDS011;2054;47.858;11.156;2023-04-25T16:42:32;2.50;;;1.05;;
4078;SDS011;2054;47.858;11.156;2023-04-25T16:45:00;1.77;;;1.40;;
4078;SDS011;2054;47.858;11.156;2023-04-25T16:47:29;1.48;;;1.23;;
4078;SDS011;2054;47.858;11.156;2023-04-25T16:49:58;1.63;;;1.45;;
4078;SDS011;2054;47.858;11.156;2023-04-25T16:52:26;1.35;;;1.25;;
4078;SDS011;2054;47.858;11.156;2023-04-25T16:54:55;1.35;;;1.23;;
4078;SDS011;2054;47.858;11.156;2023-04-25T16:57:24;1.20;;;1.10;;
4078;SDS011;2054;47.858;11.156;2023-04-25T16:59:53;1.00;;;0.88;;
4078;SDS011;2054;47.858;11.156;2023-04-25T17:02:20;0.95;;;0.95;;
4078;SDS011;2054;47.858;11.156;2023-04-25T17:04:48;1.15;;;1.10;;
4078;SDS011;2054;47.858;11.156;2023-04-25T17:07:16;1.40;;;1.13;;
4078;SDS011;2054;47.858;11.156;2023-04-25T17:09:48;0.70;;;0.70;;
4078;SDS011;2054;47.858;11.156;2023-04-25T17:12:17;0.82;;;0.82;;
4078;SDS011;2054;47.858;11.156;2023-04-25T17:14:45;1.65;;;1.10;;
4078;SDS011;2054;47.858;11.156;2023-04-25T17:17:13;0.95;;;0.95;;
4078;SDS011;2054;47.858;11.156;2023-04-25T17:19:42;1.02;;;1.00;;
4078;SDS011;2054;47.858;11.156;2023-04-25T17:22:10;0.95;;;0.80;;
4078;SDS011;2054;47.858;11.156;2023-04-25T17:24:38;0.80;;;0.80;;
4078;SDS011;2054;47.858;11.156;2023-04-25T17:27:05;1.60;;;1.08;;
4078;SDS011;2054;47.858;11.156;2023-04-25T17:29:45;1.50;;;1.40;;
4078;SDS011;2054;47.858;11.156;2023-04-25T17:32:12;1.23;;;1.13;;
4078;SDS011;2054;47.858;11.156;2023-04-25T17:34:40;1.60;;;1.50;;
4078;SDS011;2054;47.858;11.156;2023-04-25T17:37:10;3.15;;;2.63;;
4078;SDS011;2054;47.858;11.156;2023-04-25T17:39:40;3.25;;;2.45;;
4078;SDS011;2054;47.858;11.156;2023-04-25T17:42:08;4.07;;;3.65;;
4078;SDS011;2054;47.858;11.156;2023-04-25T17:44:37;2.35;;;2.00;;
4078;SDS011;2054;47.858;11.156;2023-04-25T17:47:05;10.10;;;7.68;;
4078;SDS011;2054;47.858;11.156;2023-04-25T17:49:33;2.60;;;2.22;;
4078;SDS011;2054;47.858;11.156;2023-04-25T17:52:01;3.25;;;2.95;;